Time;durP1;ratioP1;P1;durP2;ratioP2;P2;SDS_P1;SDS_P2;PMS_P1;PMS_P2;Temp;Humidity;BMP_temperature;BMP_pressure;BME280_temperature;BME280_humidity;BME280_pressure;Samples;Min_cycle;Max_cycle;Signal;HPM_P1;HPM_P2
2023/10/10 00:00:47;;;;;;;;;;;;;;;;;;5019532;28;5111;-51
2023/10/10 00:03:12;;;;;;;;;;;;;;;;;;5025747;28;5445;-48
2023/10/10 00:05:39;;;;;;;;;;;;;;;;;;5021184;28;4559;-48
2023/10/10 00:08:05;;;;;;;;;;;;;;;;;;5018719;28;3637;-46
2023/10/10 00:10:31;;;;;;;;;;;;;;;;;;5024754;28;5413;-50
2023/10/10 00:12:57;;;;;;;;;;;;;;;;;;5023861;28;4983;-48
2023/10/10 00:15:32;;;;;;;;;;;;;;;;;;5023250;28;4526;-47
2023/10/10 00:18:02;;;;;;;;;;;;;;;;;;5026608;28;5657;-48
2023/10/10 00:20:35;;;;;;;;;;;;;;;;;;5027037;28;4911;-50
2023/10/10 00:23:04;;;;;;;;;;;;;;;;;;5032336;28;1917;-48
2023/10/10 00:25:32;;;;;;;;;;;;;;;;;;5009063;28;5097;-46
2023/10/10 00:28:06;;;;;;;;;;;;;;;;;;5027497;28;5257;-50
2023/10/10 00:30:34;;;;;;;;;;;;;;;;;;5016365;28;5215;-46
2023/10/10 00:33:03;;;;;;;;;;;;;;;;;;5013464;28;5706;-47
2023/10/10 00:35:28;;;;;;;;;;;;;;;;;;5012133;28;4920;-49
2023/10/10 00:37:56;;;;;;;;;;;;;;;;;;5021312;28;3587;-47
2023/10/10 00:40:29;;;;;;;;;;;;;;;;;;5019075;28;4668;-47
2023/10/10 00:42:55;;;;;;;;;;;;;;;;;;5004666;28;5169;-48
2023/10/10 00:45:21;;;;;;;;;;;;;;;;;;5020665;28;5111;-47
2023/10/10 00:47:48;;;;;;;;;;;;;;;;;;5017917;28;4998;-47
2023/10/10 00:50:18;;;;;;;;;;;;;;;;;;5026222;28;1641;-47
2023/10/10 00:52:44;;;;;;;;;;;;;;;;;;5017326;28;5119;-47
2023/10/10 00:55:09;;;;;;;;;;;;;;;;;;5020584;28;4601;-50
2023/10/10 00:57:36;;;;;;;;;;;;;;;;;;5013325;28;5141;-48
2023/10/10 01:00:07;;;;;;;;;;;;;;;;;;5015995;28;5101;-46
2023/10/10 01:02:34;;;;;;;;;;;;;;;;;;5013655;28;5339;-47
2023/10/10 01:05:05;;;;;;;;;;;;;;;;;;5004492;28;3409;-46
2023/10/10 01:07:34;;;;;;;;;;;;;;;;;;5015398;28;4977;-47
2023/10/10 01:10:11;;;;;;;;;;;;;;;;;;5015912;28;5068;-48
2023/10/10 01:12:36;;;;;;;;;;;;;;;;;;5021871;28;5093;-48
2023/10/10 01:15:14;;;;;;;;;;;;;;;;;;5015512;28;5008;-48
2023/10/10 01:17:39;;;;;;;;;;;;;;;;;;5011033;28;5127;-49
2023/10/10 01:22:48;;;;;;;;;;;;;;;;;;5016805;28;4625;-48
2023/10/10 01:27:57;;;;;;;;;;;;;;;;;;5021028;28;4540;-46
2023/10/10 01:30:43;;;;;;;;;;;;;;;;;;5014677;28;4869;-50
2023/10/10 01:33:14;;;;;;;;;;;;;;;;;;5017275;28;5207;-46
2023/10/10 01:35:40;;;;;;;;;;;;;;;;;;5015920;28;5088;-47
2023/10/10 01:38:13;;;;;;;;;;;;;;;;;;5020717;28;3648;-47
2023/10/10 01:40:39;;;;;;;;;;;;;;;;;;4996889;28;4842;-48
2023/10/10 01:43:10;;;;;;;;;;;;;;;;;;5012060;28;5117;-48
2023/10/10 01:45:41;;;;;;;;;;;;;;;;;;5017476;28;5090;-46
2023/10/10 01:48:08;;;;;;;;;;;;;;;;;;5018508;28;5344;-48
2023/10/10 01:50:33;;;;;;;;;;;;;;;;;;5012356;28;5248;-47
2023/10/10 01:53:00;;;;;;;;;;;;;;;;;;5017161;28;3464;-47
2023/10/10 01:55:25;;;;;;;;;;;;;;;;;;5021098;28;5198;-47
2023/10/10 01:57:51;;;;;;;;;;;;;;;;;;5022549;28;5044;-46
2023/10/10 02:02:49;;;;;;;;;;;;;;;;;;5024341;28;5261;-47
2023/10/10 02:05:30;;;;;;;;;;;;;;;;;;5021141;28;5161;-48
2023/10/10 02:07:57;;;;;;;;;;;;;;;;;;5020184;28;3385;-51
2023/10/10 02:10:26;;;;;;;;;;;;;;;;;;5015721;28;4489;-48
2023/10/10 02:12:51;;;;;;;;;;;;;;;;;;5019476;28;5068;-46
2023/10/10 02:15:18;;;;;;;;;;;;;;;;;;5012500;28;4830;-47
2023/10/10 02:17:55;;;;;;;;;;;;;;;;;;5024749;28;5328;-49
2023/10/10 02:22:51;;;;;;;;;;;;;;;;;;5028250;28;3122;-46
2023/10/10 02:28:19;;;;;;;;;;;;;;;;;;5019240;28;5095;-49
2023/10/10 02:30:39;;;;;;;;;;;;;;;;;;5026925;28;5048;-49
2023/10/10 02:35:54;;;;;;;;;;;;;;;;;;5009245;28;5034;-46
2023/10/10 02:38:34;;;;;;;;;;;;;;;;;;5022908;28;4666;-50
2023/10/10 02:41:15;;;;;;;;;;;;;;;;;;5025353;28;1977;-48
2023/10/10 02:43:54;;;;;;;;;;;;;;;;;;5023898;28;4948;-47
2023/10/10 02:46:20;;;;;;;;;;;;;;;;;;5019124;28;5015;-48
2023/10/10 02:48:53;;;;;;;;;;;;;;;;;;5022516;28;5147;-47
2023/10/10 02:51:19;;;;;;;;;;;;;;;;;;5015974;28;5101;-48
2023/10/10 02:53:47;;;;;;;;;;;;;;;;;;5013703;28;5014;-46
2023/10/10 02:56:18;;;;;;;;;;;;;;;;;;5040741;28;2337;-47
2023/10/10 02:58:45;;;;;;;;;;;;;;;;;;5025355;28;4682;-47
2023/10/10 03:01:19;;;;;;;;;;;;;;;;;;5017838;28;5100;-47
2023/10/10 03:03:44;;;;;;;;;;;;;;;;;;5039684;28;4489;-47
2023/10/10 03:06:10;;;;;;;;;;;;;;;;;;5027368;28;4559;-49
2023/10/10 03:08:41;;;;;;;;;;;;;;;;;;5019641;28;5069;-48
2023/10/10 03:11:35;;;;;;;;;;;;;;;;;;5026691;28;1180;-46
2023/10/10 03:14:07;;;;;;;;;;;;;;;;;;5033442;28;4502;-48
2023/10/10 03:16:43;;;;;;;;;;;;;;;;;;5025007;28;4954;-46
2023/10/10 03:19:13;;;;;;;;;;;;;;;;;;5028197;28;4496;-49
2023/10/10 03:32:45;;;;;;;;;;;;;;;;;;4916752;29;4862;-48
2023/10/10 03:35:20;;;;;;;;;;;;;;;;;;5026415;28;1149;-48
2023/10/10 03:37:54;;;;;;;;;;;;;;;;;;5036285;28;4895;-47
2023/10/10 03:41:04;;;;;;;;;;;;;;;;;;5025476;28;4794;-47
2023/10/10 05:24:51;;;;;;;;;;;;;;;;;;5014635;28;5055;-51
2023/10/10 05:27:17;;;;;;;;;;;;;;;;;;5026239;28;4955;-51
2023/10/10 05:29:43;;;;;;;;;;;;;;;;;;5023287;28;4976;-48
2023/10/10 05:32:08;;;;;;;;;;;;;;;;;;5034918;28;1346;-51
2023/10/10 05:34:37;;;;;;;;;;;;;;;;;;5029760;28;4462;-50
2023/10/10 05:37:03;;;;;;;;;;;;;;;;;;5023753;28;5194;-48
2023/10/10 05:39:32;;;;;;;;;;;;;;;;;;5019830;28;5128;-50
2023/10/10 05:41:59;;;;;;;;;;;;;;;;;;5026466;28;5072;-49
2023/10/10 05:44:25;;;;;;;;;;;;;;;;;;5033994;28;4585;-46
2023/10/10 05:46:50;;;;;;;;;;;;;;;;;;5036014;28;1116;-50
2023/10/10 05:49:15;;;;;;;;;;;;;;;;;;5033513;28;4827;-51
2023/10/10 05:51:40;;;;;;;;;;;;;;;;;;5019181;28;5082;-48
2023/10/10 05:54:11;;;;;;;;;;;;;;;;;;5025746;28;5144;-53
2023/10/10 05:56:37;;;;;;;;;;;;;;;;;;5026991;28;5271;-50
2023/10/10 05:59:02;;;;;;;;;;;;;;;;;;5024891;28;3380;-52
2023/10/10 06:01:30;;;;;;;;;;;;;;;;;;5019397;28;4904;-47
2023/10/10 06:03:56;;;;;;;;;;;;;;;;;;5018932;28;5080;-51
2023/10/10 06:06:21;;;;;;;;;;;;;;;;;;5011644;28;5652;-51
2023/10/10 06:08:46;;;;;;;;;;;;;;;;;;5022399;28;4455;-50
2023/10/10 06:11:13;;;;;;;;;;;;;;;;;;5011029;28;3401;-48
2023/10/10 06:13:39;;;;;;;;;;;;;;;;;;5009313;28;4853;-47
2023/10/10 06:16:14;;;;;;;;;;;;;;;;;;5021909;28;5082;-46
2023/10/10 06:18:44;;;;;;;;;;;;;;;;;;5018165;28;5225;-48
2023/10/10 06:21:10;;;;;;;;;;;;;;;;;;5012027;28;5087;-50
2023/10/10 06:23:35;;;;;;;;;;;;;;;;;;5019806;28;4626;-50
2023/10/10 06:26:01;;;;;;;;;;;;;;;;;;5009410;28;3185;-49
2023/10/10 06:28:26;;;;;;;;;;;;;;;;;;5027254;28;5231;-47
2023/10/10 06:30:55;;;;;;;;;;;;;;;;;;5025419;28;5028;-52
2023/10/10 06:33:27;;;;;;;;;;;;;;;;;;5027993;28;4828;-49
2023/10/10 06:36:39;;;;;;;;;;;;;;;;;;5036936;28;5292;-49
2023/10/10 06:41:35;;;;;;;;;;;;;;;;;;5025690;28;4655;-47
2023/10/10 06:44:00;;;;;;;;;;;;;;;;;;5034071;28;1142;-49
2023/10/10 06:46:32;;;;;;;;;;;;;;;;;;5043900;28;5008;-49
2023/10/10 06:49:06;;;;;;;;;;;;;;;;;;5032307;28;5030;-49
2023/10/10 06:51:33;;;;;;;;;;;;;;;;;;5027338;28;4453;-52
2023/10/10 06:53:58;;;;;;;;;;;;;;;;;;5029278;28;5198;-49
2023/10/10 06:59:16;;;;;;;;;;;;;;;;;;5017596;28;3025;-53
2023/10/10 07:01:45;;;;;;;;;;;;;;;;;;5019511;28;5521;-54
2023/10/10 07:04:11;;;;;;;;;;;;;;;;;;5030629;28;4703;-54
2023/10/10 07:06:37;;;;;;;;;;;;;;;;;;5031590;28;5018;-53
2023/10/10 07:09:14;;;;;;;;;;;;;;;;;;5027539;28;4988;-55
2023/10/10 07:11:43;;;;;;;;;;;;;;;;;;5027642;28;5555;-55
2023/10/10 07:14:10;;;;;;;;;;;;;;;;;;5023257;28;1123;-54
2023/10/10 07:16:35;;;;;;;;;;;;;;;;;;5019457;28;4693;-52
2023/10/10 07:19:18;;;;;;;;;;;;;;;;;;5024765;28;4757;-53
2023/10/10 07:21:44;;;;;;;;;;;;;;;;;;5033237;28;5102;-54
2023/10/10 07:24:16;;;;;;;;;;;;;;;;;;5035104;28;4991;-54
2023/10/10 07:26:42;;;;;;;;;;;;;;;;;;5030915;28;4652;-53
2023/10/10 07:32:17;;;;;;;;;;;;;;;;;;4946019;29;4916;-51
2023/10/10 07:34:49;;;;;;;;;;;;;;;;;;4932465;29;1677;-52
2023/10/10 07:37:14;;;;;;;;;;;;;;;;;;4982815;28;4939;-54
2023/10/10 07:39:55;;;;;;;;;;;;;;;;;;5027174;28;4843;-50
2023/10/10 07:42:27;;;;;;;;;;;;;;;;;;5019280;28;5038;-52
2023/10/10 07:44:54;;;;;;;;;;;;;;;;;;5022550;28;5228;-52
2023/10/10 07:47:25;;;;;;;;;;;;;;;;;;5018956;28;4565;-54
2023/10/10 07:49:51;;;;;;;;;;;;;;;;;;5026764;28;3175;-55
2023/10/10 07:52:20;;;;;;;;;;;;;;;;;;5026090;28;5408;-53
2023/10/10 07:54:46;;;;;;;;;;;;;;;;;;5023761;28;5176;-54
2023/10/10 07:57:17;;;;;;;;;;;;;;;;;;5024726;28;5141;-54
2023/10/10 07:59:43;;;;;;;;;;;;;;;;;;5047157;28;4522;-53
2023/10/10 08:05:10;;;;;;;;;;;;;;;;;;4999941;28;4471;-55
2023/10/10 08:07:36;;;;;;;;;;;;;;;;;;5015980;28;4965;-53
2023/10/10 08:10:14;;;;;;;;;;;;;;;;;;5017736;28;4659;-52
2023/10/10 08:12:40;;;;;;;;;;;;;;;;;;5018366;28;5060;-53
2023/10/10 08:15:24;;;;;;;;;;;;;;;;;;5019781;28;5095;-52
2023/10/10 08:17:53;;;;;;;;;;;;;;;;;;5021135;28;5316;-54
2023/10/10 08:23:01;;;;;;;;;;;;;;;;;;5017209;28;3368;-56
2023/10/10 08:25:26;;;;;;;;;;;;;;;;;;5021462;28;5082;-48
2023/10/10 08:27:51;;;;;;;;;;;;;;;;;;5018363;28;5165;-49
2023/10/10 08:30:17;;;;;;;;;;;;;;;;;;5018013;28;4527;-52
2023/10/10 08:32:43;;;;;;;;;;;;;;;;;;5030173;28;5411;-51
2023/10/10 08:35:10;;;;;;;;;;;;;;;;;;5024311;28;2145;-56
2023/10/10 08:37:36;;;;;;;;;;;;;;;;;;5017948;28;5134;-51
2023/10/10 08:40:15;;;;;;;;;;;;;;;;;;5019597;28;4612;-52
2023/10/10 08:42:41;;;;;;;;;;;;;;;;;;5015685;28;5207;-53
2023/10/10 08:45:15;;;;;;;;;;;;;;;;;;5018953;28;5139;-55
2023/10/10 08:47:42;;;;;;;;;;;;;;;;;;5005347;28;5135;-53
2023/10/10 08:50:09;;;;;;;;;;;;;;;;;;5023840;28;1197;-54
2023/10/10 08:52:35;;;;;;;;;;;;;;;;;;5024353;28;5020;-52
2023/10/10 08:55:00;;;;;;;;;;;;;;;;;;5020289;28;4989;-52
2023/10/10 08:57:27;;;;;;;;;;;;;;;;;;5021429;28;4892;-53
2023/10/10 08:59:52;;;;;;;;;;;;;;;;;;5020301;28;5059;-49
2023/10/10 09:02:19;;;;;;;;;;;;;;;;;;5023817;28;5168;-53
2023/10/10 09:04:46;;;;;;;;;;;;;;;;;;5018797;28;1362;-54
2023/10/10 09:07:19;;;;;;;;;;;;;;;;;;5023939;28;5018;-52
2023/10/10 09:09:54;;;;;;;;;;;;;;;;;;5018403;28;4659;-54
2023/10/10 09:12:20;;;;;;;;;;;;;;;;;;5017375;28;5001;-52
2023/10/10 09:14:51;;;;;;;;;;;;;;;;;;5031142;28;5080;-54
2023/10/10 09:17:32;;;;;;;;;;;;;;;;;;5029300;28;5199;-52
2023/10/10 09:19:57;;;;;;;;;;;;;;;;;;5014650;28;1538;-53
2023/10/10 09:22:34;;;;;;;;;;;;;;;;;;5030478;28;5133;-52
2023/10/10 09:25:06;;;;;;;;;;;;;;;;;;5024928;28;4969;-53
2023/10/10 09:27:35;;;;;;;;;;;;;;;;;;5025213;28;5083;-53
2023/10/10 09:30:09;;;;;;;;;;;;;;;;;;5033249;28;4469;-54
2023/10/10 09:32:42;;;;;;;;;;;;;;;;;;5025995;28;4522;-52
2023/10/10 09:35:08;;;;;;;;;;;;;;;;;;5015112;28;3278;-52
2023/10/10 09:37:38;;;;;;;;;;;;;;;;;;5027880;28;4838;-50
2023/10/10 09:40:07;;;;;;;;;;;;;;;;;;5027615;28;4869;-52
2023/10/10 09:43:12;;;;;;;;;;;;;;;;;;5050435;28;5041;-49
2023/10/10 09:51:30;;;;;;;;;;;;;;;;;;4946462;28;5129;-53
2023/10/10 09:54:04;;;;;;;;;;;;;;;;;;5012291;28;5080;-50
2023/10/10 09:56:29;;;;;;;;;;;;;;;;;;5045974;28;5049;-53
2023/10/10 09:58:54;;;;;;;;;;;;;;;;;;5036857;28;1310;-54
2023/10/10 10:01:23;;;;;;;;;;;;;;;;;;5021630;28;4388;-51
2023/10/10 10:03:59;;;;;;;;;;;;;;;;;;5006483;28;5109;-50
2023/10/10 10:06:51;;;;;;;;;;;;;;;;;;5031137;28;5884;-52
2023/10/10 10:09:19;;;;;;;;;;;;;;;;;;5025522;28;4446;-53
2023/10/10 10:11:51;;;;;;;;;;;;;;;;;;5022581;28;5185;-53
2023/10/10 10:14:35;;;;;;;;;;;;;;;;;;5031485;28;5114;-53
2023/10/10 10:17:12;;;;;;;;;;;;;;;;;;5028359;28;5084;-52
2023/10/10 10:19:47;;;;;;;;;;;;;;;;;;5032853;28;5059;-53
2023/10/10 10:22:18;;;;;;;;;;;;;;;;;;5032551;28;6058;-53
2023/10/10 10:24:47;;;;;;;;;;;;;;;;;;5039121;28;5519;-51
2023/10/10 10:27:31;;;;;;;;;;;;;;;;;;5029904;28;5094;-54
2023/10/10 10:30:07;;;;;;;;;;;;;;;;;;5022704;28;5147;-52
2023/10/10 10:32:35;;;;;;;;;;;;;;;;;;5020060;28;5058;-51
2023/10/10 10:35:01;;;;;;;;;;;;;;;;;;5026112;28;3311;-51
2023/10/10 10:37:28;;;;;;;;;;;;;;;;;;5026745;28;4856;-52
2023/10/10 10:42:40;;;;;;;;;;;;;;;;;;5021734;28;5138;-52
2023/10/10 10:45:38;;;;;;;;;;;;;;;;;;5018523;28;5257;-54
2023/10/10 10:48:07;;;;;;;;;;;;;;;;;;5021537;28;4540;-51
2023/10/10 10:50:58;;;;;;;;;;;;;;;;;;5015990;28;4886;-51
2023/10/10 10:53:33;;;;;;;;;;;;;;;;;;5019048;28;5153;-49
2023/10/10 11:01:30;;;;;;;;;;;;;;;;;;5002550;28;5051;-51
2023/10/10 11:03:56;;;;;;;;;;;;;;;;;;5033809;28;4637;-49
2023/10/10 11:06:24;;;;;;;;;;;;;;;;;;5028747;28;5004;-49
2023/10/10 11:14:09;;;;;;;;;;;;;;;;;;5016011;28;5118;-50
2023/10/10 11:16:39;;;;;;;;;;;;;;;;;;5028070;28;4902;-50
2023/10/10 11:21:48;;;;;;;;;;;;;;;;;;5034109;28;5806;-49
2023/10/10 11:24:15;;;;;;;;;;;;;;;;;;5020295;28;5209;-49
2023/10/10 11:26:40;;;;;;;;;;;;;;;;;;5021343;28;5055;-48
2023/10/10 11:29:27;;;;;;;;;;;;;;;;;;5037119;28;1158;-50
2023/10/10 11:32:07;;;;;;;;;;;;;;;;;;5029333;28;4995;-48
2023/10/10 11:34:45;;;;;;;;;;;;;;;;;;5027848;28;4436;-49
2023/10/10 11:37:25;;;;;;;;;;;;;;;;;;5038876;28;5914;-47
2023/10/10 11:39:57;;;;;;;;;;;;;;;;;;5032037;28;5087;-51
2023/10/10 11:42:23;;;;;;;;;;;;;;;;;;5030100;28;5066;-50
2023/10/10 11:44:53;;;;;;;;;;;;;;;;;;5012463;28;5206;-48
2023/10/10 11:47:24;;;;;;;;;;;;;;;;;;5025072;28;4618;-49
2023/10/10 11:50:17;;;;;;;;;;;;;;;;;;5036242;28;1271;-50
2023/10/10 11:52:52;;;;;;;;;;;;;;;;;;5016851;28;5162;-49
2023/10/10 11:55:20;;;;;;;;;;;;;;;;;;5019516;28;4959;-48
2023/10/10 11:57:46;;;;;;;;;;;;;;;;;;5019524;28;4959;-50
2023/10/10 12:00:11;;;;;;;;;;;;;;;;;;5029217;28;5018;-48
2023/10/10 12:02:40;;;;;;;;;;;;;;;;;;5026894;28;4585;-52
2023/10/10 12:05:35;;;;;;;;;;;;;;;;;;5039128;28;1170;-50
2023/10/10 12:07:53;;;;;;;;;;;;;;;;;;5034090;28;4490;-50
2023/10/10 12:10:21;;;;;;;;;;;;;;;;;;5023183;28;5056;-48
2023/10/10 12:12:48;;;;;;;;;;;;;;;;;;5028949;28;5017;-50
2023/10/10 12:15:19;;;;;;;;;;;;;;;;;;5019183;28;5010;-56
2023/10/10 12:17:44;;;;;;;;;;;;;;;;;;5029179;28;5197;-55
2023/10/10 12:20:09;;;;;;;;;;;;;;;;;;5021335;28;3330;-56
2023/10/10 12:22:35;;;;;;;;;;;;;;;;;;5021720;28;5329;-57
2023/10/10 12:25:00;;;;;;;;;;;;;;;;;;5021978;28;4987;-56
2023/10/10 12:27:30;;;;;;;;;;;;;;;;;;5021067;28;5005;-57
2023/10/10 12:29:56;;;;;;;;;;;;;;;;;;5022882;28;5026;-56
2023/10/10 12:32:22;;;;;;;;;;;;;;;;;;5023865;28;5180;-56
2023/10/10 12:34:47;;;;;;;;;;;;;;;;;;5025413;28;1462;-56
2023/10/10 12:37:15;;;;;;;;;;;;;;;;;;5016537;28;5143;-56
2023/10/10 12:39:41;;;;;;;;;;;;;;;;;;5020229;28;4990;-55
2023/10/10 12:42:07;;;;;;;;;;;;;;;;;;5019162;28;4634;-57
2023/10/10 12:44:33;;;;;;;;;;;;;;;;;;5017481;28;4472;-55
2023/10/10 12:46:59;;;;;;;;;;;;;;;;;;5022838;28;1441;-56
2023/10/10 12:49:36;;;;;;;;;;;;;;;;;;5027340;28;4846;-56
2023/10/10 12:52:02;;;;;;;;;;;;;;;;;;5020053;28;5107;-56
2023/10/10 12:54:34;;;;;;;;;;;;;;;;;;5021234;28;5056;-56
2023/10/10 12:57:03;;;;;;;;;;;;;;;;;;5018296;28;5190;-57
2023/10/10 12:59:30;;;;;;;;;;;;;;;;;;5007400;28;5092;-56
2023/10/10 13:01:59;;;;;;;;;;;;;;;;;;5018921;28;3467;-56
2023/10/10 13:04:29;;;;;;;;;;;;;;;;;;5017357;28;5062;-53
2023/10/10 13:06:55;;;;;;;;;;;;;;;;;;5021685;28;5747;-54
2023/10/10 13:09:21;;;;;;;;;;;;;;;;;;5009723;28;5054;-55
2023/10/10 13:11:48;;;;;;;;;;;;;;;;;;5021713;28;5075;-55
2023/10/10 13:14:19;;;;;;;;;;;;;;;;;;5022470;28;3370;-55
2023/10/10 13:19:09;;;;;;;;;;;;;;;;;;5022791;28;5132;-55
2023/10/10 13:21:36;;;;;;;;;;;;;;;;;;5015049;28;4714;-55
2023/10/10 13:24:01;;;;;;;;;;;;;;;;;;5016715;28;5119;-55
2023/10/10 13:26:27;;;;;;;;;;;;;;;;;;5023208;28;5041;-54
2023/10/10 13:28:53;;;;;;;;;;;;;;;;;;5018921;28;3391;-55
2023/10/10 13:31:18;;;;;;;;;;;;;;;;;;5024568;28;5092;-55
2023/10/10 13:33:44;;;;;;;;;;;;;;;;;;5022638;28;5175;-55
2023/10/10 13:36:15;;;;;;;;;;;;;;;;;;5018382;28;5131;-55
2023/10/10 13:38:50;;;;;;;;;;;;;;;;;;5015287;28;4984;-55
2023/10/10 13:41:18;;;;;;;;;;;;;;;;;;5001908;28;1635;-55
2023/10/10 13:43:47;;;;;;;;;;;;;;;;;;5017671;28;4891;-54
2023/10/10 13:46:13;;;;;;;;;;;;;;;;;;5023602;28;5029;-55
2023/10/10 13:48:38;;;;;;;;;;;;;;;;;;5017076;28;5145;-55
2023/10/10 13:51:07;;;;;;;;;;;;;;;;;;5017518;28;5319;-56
2023/10/10 13:53:32;;;;;;;;;;;;;;;;;;5016061;28;5231;-55
2023/10/10 13:56:00;;;;;;;;;;;;;;;;;;5009865;28;3446;-49
2023/10/10 13:58:25;;;;;;;;;;;;;;;;;;5012884;28;5122;-50
2023/10/10 14:00:55;;;;;;;;;;;;;;;;;;5018104;28;5089;-47
2023/10/10 14:03:28;;;;;;;;;;;;;;;;;;5024326;28;5120;-50
2023/10/10 14:06:12;;;;;;;;;;;;;;;;;;5009855;28;4928;-50
2023/10/10 14:08:37;;;;;;;;;;;;;;;;;;5009485;28;5061;-51
2023/10/10 14:11:03;;;;;;;;;;;;;;;;;;5013319;28;3430;-48
2023/10/10 14:13:29;;;;;;;;;;;;;;;;;;5014737;28;4987;-51
2023/10/10 14:15:54;;;;;;;;;;;;;;;;;;5015673;28;4670;-50
2023/10/10 14:18:52;;;;;;;;;;;;;;;;;;5011701;28;4728;-49
2023/10/10 14:21:23;;;;;;;;;;;;;;;;;;5003855;28;4642;-51
2023/10/10 14:23:48;;;;;;;;;;;;;;;;;;5015397;28;6025;-49
2023/10/10 14:26:14;;;;;;;;;;;;;;;;;;5013504;28;3348;-50
2023/10/10 14:28:40;;;;;;;;;;;;;;;;;;5015575;28;4892;-50
2023/10/10 14:31:11;;;;;;;;;;;;;;;;;;5011692;28;5097;-49
2023/10/10 14:33:39;;;;;;;;;;;;;;;;;;5011146;28;5043;-49
2023/10/10 14:36:04;;;;;;;;;;;;;;;;;;5014825;28;4495;-48
2023/10/10 14:38:31;;;;;;;;;;;;;;;;;;5011122;28;4581;-48
2023/10/10 14:40:57;;;;;;;;;;;;;;;;;;5018107;28;3402;-50
2023/10/10 14:43:22;;;;;;;;;;;;;;;;;;5000878;28;5123;-49
2023/10/10 14:45:48;;;;;;;;;;;;;;;;;;5012164;28;4977;-49
2023/10/10 14:48:18;;;;;;;;;;;;;;;;;;5015523;28;5131;-49
2023/10/10 14:50:44;;;;;;;;;;;;;;;;;;5020878;28;4517;-48
2023/10/10 14:53:09;;;;;;;;;;;;;;;;;;5017797;28;3395;-52
2023/10/10 14:55:39;;;;;;;;;;;;;;;;;;5019249;28;4946;-50
2023/10/10 14:58:08;;;;;;;;;;;;;;;;;;5009819;28;5102;-48
2023/10/10 15:00:39;;;;;;;;;;;;;;;;;;5017640;28;5062;-47
2023/10/10 15:03:08;;;;;;;;;;;;;;;;;;5016746;28;4992;-50
2023/10/10 15:05:34;;;;;;;;;;;;;;;;;;5022879;28;4711;-49
2023/10/10 15:07:59;;;;;;;;;;;;;;;;;;5018378;28;3163;-47
2023/10/10 15:10:27;;;;;;;;;;;;;;;;;;5018167;28;4993;-51
2023/10/10 15:12:53;;;;;;;;;;;;;;;;;;5019571;28;4617;-47
2023/10/10 15:15:18;;;;;;;;;;;;;;;;;;5024276;28;4979;-50
2023/10/10 15:17:44;;;;;;;;;;;;;;;;;;5018828;28;5252;-52
2023/10/10 15:20:12;;;;;;;;;;;;;;;;;;5025233;28;1402;-50
2023/10/10 15:22:41;;;;;;;;;;;;;;;;;;5022611;28;4671;-52
2023/10/10 15:25:08;;;;;;;;;;;;;;;;;;5023662;28;5028;-52
2023/10/10 15:27:34;;;;;;;;;;;;;;;;;;5020298;28;5043;-51
2023/10/10 15:30:00;;;;;;;;;;;;;;;;;;5022580;28;5077;-52
2023/10/10 15:32:25;;;;;;;;;;;;;;;;;;5034881;28;5046;-50
2023/10/10 15:34:51;;;;;;;;;;;;;;;;;;5020369;28;1334;-50
2023/10/10 15:37:19;;;;;;;;;;;;;;;;;;5004306;28;5041;-49
2023/10/10 15:39:44;;;;;;;;;;;;;;;;;;5013885;28;4459;-49
2023/10/10 15:42:11;;;;;;;;;;;;;;;;;;5024088;28;5164;-49
2023/10/10 15:44:40;;;;;;;;;;;;;;;;;;4995122;28;4581;-48
2023/10/10 15:47:06;;;;;;;;;;;;;;;;;;5019312;28;3244;-47
2023/10/10 15:49:32;;;;;;;;;;;;;;;;;;5020757;28;4506;-51
2023/10/10 15:52:03;;;;;;;;;;;;;;;;;;5021702;28;5099;-47
2023/10/10 15:54:33;;;;;;;;;;;;;;;;;;5017809;28;4866;-50
2023/10/10 15:57:02;;;;;;;;;;;;;;;;;;5023857;28;4621;-47
2023/10/10 15:59:28;;;;;;;;;;;;;;;;;;5015728;28;5002;-49
2023/10/10 16:01:53;;;;;;;;;;;;;;;;;;5019300;28;3346;-50
2023/10/10 16:04:20;;;;;;;;;;;;;;;;;;5024651;28;4454;-47
2023/10/10 16:06:47;;;;;;;;;;;;;;;;;;5016866;28;5108;-51
2023/10/10 16:09:19;;;;;;;;;;;;;;;;;;5017379;28;4713;-50
2023/10/10 16:11:52;;;;;;;;;;;;;;;;;;5021329;28;5076;-47
2023/10/10 16:14:18;;;;;;;;;;;;;;;;;;5016017;28;5041;-53
2023/10/10 16:16:44;;;;;;;;;;;;;;;;;;5003018;28;4764;-48
2023/10/10 16:19:13;;;;;;;;;;;;;;;;;;5036400;28;4835;-49
2023/10/10 16:21:39;;;;;;;;;;;;;;;;;;5017417;28;5088;-49
2023/10/10 16:24:05;;;;;;;;;;;;;;;;;;5014056;28;4996;-50
2023/10/10 16:26:30;;;;;;;;;;;;;;;;;;5021608;28;4996;-48
2023/10/10 16:28:56;;;;;;;;;;;;;;;;;;5019718;28;1732;-48
2023/10/10 16:31:24;;;;;;;;;;;;;;;;;;5035329;28;5082;-48
2023/10/10 16:33:50;;;;;;;;;;;;;;;;;;5006686;28;5297;-49
2023/10/10 16:36:18;;;;;;;;;;;;;;;;;;5015858;28;4998;-48
2023/10/10 16:38:49;;;;;;;;;;;;;;;;;;4997395;28;5175;-51
2023/10/10 16:41:15;;;;;;;;;;;;;;;;;;5018818;28;1232;-50
2023/10/10 16:43:40;;;;;;;;;;;;;;;;;;5034143;28;4467;-49
2023/10/10 16:46:06;;;;;;;;;;;;;;;;;;5018719;28;5000;-50
2023/10/10 16:48:31;;;;;;;;;;;;;;;;;;5018944;28;5032;-50
2023/10/10 16:51:01;;;;;;;;;;;;;;;;;;5008512;28;4998;-51
2023/10/10 16:53:26;;;;;;;;;;;;;;;;;;5031441;28;5154;-48
2023/10/10 16:55:53;;;;;;;;;;;;;;;;;;5017999;28;3231;-48
2023/10/10 16:58:18;;;;;;;;;;;;;;;;;;5025063;28;5034;-48
2023/10/10 17:00:48;;;;;;;;;;;;;;;;;;5013329;28;4669;-48
2023/10/10 17:03:13;;;;;;;;;;;;;;;;;;5012839;28;5146;-47
2023/10/10 17:05:40;;;;;;;;;;;;;;;;;;5015148;28;4991;-48
2023/10/10 17:08:05;;;;;;;;;;;;;;;;;;5034652;28;1404;-48
2023/10/10 17:10:32;;;;;;;;;;;;;;;;;;5011881;28;4845;-50
2023/10/10 17:12:57;;;;;;;;;;;;;;;;;;5017211;28;4917;-50
2023/10/10 17:15:22;;;;;;;;;;;;;;;;;;5017166;28;4603;-51
2023/10/10 17:17:48;;;;;;;;;;;;;;;;;;5015180;28;4774;-50
2023/10/10 17:20:15;;;;;;;;;;;;;;;;;;5039651;28;1442;-52
2023/10/10 17:22:50;;;;;;;;;;;;;;;;;;5017308;28;4919;-52
2023/10/10 17:25:15;;;;;;;;;;;;;;;;;;5012142;28;5044;-51
2023/10/10 17:27:40;;;;;;;;;;;;;;;;;;5029053;28;5371;-51
2023/10/10 17:30:08;;;;;;;;;;;;;;;;;;5013272;28;5279;-56
2023/10/10 17:32:33;;;;;;;;;;;;;;;;;;5012207;28;5092;-49
2023/10/10 17:35:04;;;;;;;;;;;;;;;;;;5016118;28;3340;-53
2023/10/10 17:37:29;;;;;;;;;;;;;;;;;;5018662;28;5167;-52
2023/10/10 17:39:56;;;;;;;;;;;;;;;;;;5013227;28;4858;-51
2023/10/10 17:42:23;;;;;;;;;;;;;;;;;;5020168;28;5118;-52
2023/10/10 17:44:49;;;;;;;;;;;;;;;;;;5012968;28;4613;-51
2023/10/10 17:47:15;;;;;;;;;;;;;;;;;;5018157;28;3318;-51
2023/10/10 17:49:41;;;;;;;;;;;;;;;;;;5018546;28;4876;-53
2023/10/10 17:52:06;;;;;;;;;;;;;;;;;;5023492;28;4648;-53
2023/10/10 17:54:33;;;;;;;;;;;;;;;;;;5017860;28;4999;-52
2023/10/10 17:56:58;;;;;;;;;;;;;;;;;;5020411;28;5145;-52
2023/10/10 17:59:23;;;;;;;;;;;;;;;;;;5017385;28;5207;-53
2023/10/10 18:01:52;;;;;;;;;;;;;;;;;;5019393;28;3301;-51
2023/10/10 18:04:17;;;;;;;;;;;;;;;;;;5031300;28;5173;-53
2023/10/10 18:06:43;;;;;;;;;;;;;;;;;;5019206;28;5155;-53
2023/10/10 18:09:16;;;;;;;;;;;;;;;;;;5016051;28;5833;-52
2023/10/10 18:11:41;;;;;;;;;;;;;;;;;;5019088;28;4842;-53
2023/10/10 18:14:07;;;;;;;;;;;;;;;;;;4999604;28;3387;-53
2023/10/10 18:16:36;;;;;;;;;;;;;;;;;;5040104;28;5056;-52
2023/10/10 18:19:01;;;;;;;;;;;;;;;;;;5030153;28;4858;-54
2023/10/10 18:21:29;;;;;;;;;;;;;;;;;;5011022;28;5100;-51
2023/10/10 18:23:55;;;;;;;;;;;;;;;;;;5019535;28;5063;-57
2023/10/10 18:26:22;;;;;;;;;;;;;;;;;;5014746;28;5324;-52
2023/10/10 18:28:49;;;;;;;;;;;;;;;;;;5003555;28;1565;-55
2023/10/10 18:31:15;;;;;;;;;;;;;;;;;;5015487;28;5037;-53
2023/10/10 18:33:41;;;;;;;;;;;;;;;;;;5014475;28;5074;-55
2023/10/10 18:36:07;;;;;;;;;;;;;;;;;;5019907;28;4485;-53
2023/10/10 18:38:33;;;;;;;;;;;;;;;;;;5014809;28;5647;-55
2023/10/10 18:40:59;;;;;;;;;;;;;;;;;;4999782;28;1453;-52
2023/10/10 18:43:24;;;;;;;;;;;;;;;;;;5009124;28;5044;-55
2023/10/10 18:45:56;;;;;;;;;;;;;;;;;;5018624;28;5115;-55
2023/10/10 18:48:27;;;;;;;;;;;;;;;;;;4999175;28;5381;-53
2023/10/10 18:50:52;;;;;;;;;;;;;;;;;;5015559;28;4764;-53
2023/10/10 18:53:17;;;;;;;;;;;;;;;;;;5028191;28;4624;-57
2023/10/10 18:55:47;;;;;;;;;;;;;;;;;;5013923;28;3402;-52
2023/10/10 18:58:15;;;;;;;;;;;;;;;;;;5014518;28;4986;-53
2023/10/10 19:00:41;;;;;;;;;;;;;;;;;;5016640;28;5078;-52
2023/10/10 19:03:08;;;;;;;;;;;;;;;;;;5017638;28;5028;-53
2023/10/10 19:05:33;;;;;;;;;;;;;;;;;;5033560;28;5023;-56
2023/10/10 19:07:59;;;;;;;;;;;;;;;;;;5018786;28;3145;-59
2023/10/10 19:10:27;;;;;;;;;;;;;;;;;;5014394;28;4892;-61
2023/10/10 19:12:53;;;;;;;;;;;;;;;;;;5020667;28;5067;-58
2023/10/10 19:15:18;;;;;;;;;;;;;;;;;;5017035;28;4557;-57
2023/10/10 19:17:44;;;;;;;;;;;;;;;;;;5000096;28;5085;-58
2023/10/10 19:20:17;;;;;;;;;;;;;;;;;;5022782;28;3534;-58
2023/10/10 19:22:46;;;;;;;;;;;;;;;;;;5016212;28;5184;-62
2023/10/10 19:25:11;;;;;;;;;;;;;;;;;;5013529;28;5125;-56
2023/10/10 19:27:37;;;;;;;;;;;;;;;;;;5018344;28;4853;-55
2023/10/10 19:30:03;;;;;;;;;;;;;;;;;;5017187;28;5084;-53
2023/10/10 19:32:28;;;;;;;;;;;;;;;;;;5018263;28;5068;-58
2023/10/10 19:34:54;;;;;;;;;;;;;;;;;;5014916;28;3402;-57
2023/10/10 19:37:20;;;;;;;;;;;;;;;;;;5013332;28;4656;-58
2023/10/10 19:39:45;;;;;;;;;;;;;;;;;;5014836;28;4639;-57
2023/10/10 19:42:11;;;;;;;;;;;;;;;;;;5021232;28;5160;-56
2023/10/10 19:44:36;;;;;;;;;;;;;;;;;;5021184;28;4667;-59
2023/10/10 19:47:06;;;;;;;;;;;;;;;;;;5025581;28;3893;-59
2023/10/10 19:49:34;;;;;;;;;;;;;;;;;;5021603;28;5021;-57
2023/10/10 19:51:59;;;;;;;;;;;;;;;;;;5019758;28;5227;-57
2023/10/10 19:54:25;;;;;;;;;;;;;;;;;;5015821;28;5849;-60
2023/10/10 19:56:50;;;;;;;;;;;;;;;;;;5018573;28;4896;-58
2023/10/10 19:59:15;;;;;;;;;;;;;;;;;;5018839;28;3391;-58
2023/10/10 20:01:42;;;;;;;;;;;;;;;;;;5033807;28;5049;-57